ENCN Airport Information

Runway Information
Runway 04 Length 6660 ft width 148 ft
Elevation 41 ft Threshold 394 ft Heading 35
Runway 22 Length 6660 ft Width 148 ft
Elevation 52 ft Threshold 623 ft Heading 215
Airport Frequencies
Type ATIS Name INFO Frequency 124.475 MHZ
Type TWR Name TWR Frequency 118.1 MHZ
Airport Navaids
Type NDB Name Odderoy Frequency 372 KHZ
Type VOR-DME Name Svensheia Frequency 112100 KHZ
Airport Weather Information & NOTAM
ADDS - METARS form results

(0111 UTC 27 July 2021)
Data provider http://aviationweather.gov/metar/data/
 
METAR text: ENCN 270050Z AUTO 06005KT 3400 SCT010/// BKN110/// 17/17 Q1010
Conditions at: ENCN (KRISTIANSAND/KJE, NO) observed 0050 UTC 27 July 2021
Temperature: 17.0°C (63°F)
Dewpoint: 17.0°C (63°F) [RH = 100%]
Pressure (altimeter): 29.82 inches Hg (1010.0 mb)
Winds: from the ENE (60 degrees) at 6 MPH (5 knots; 2.6 m/s)
Visibility: 2.11 miles (3.40 km)
Ceiling: 11000 feet AGL
Clouds: scattered clouds at 1000 feet AGL
broken clouds at 11000 feet AGL
Weather: no significant weather observed at this time

METAR text: ENCN 270020Z AUTO 05003KT 8000 FEW009/// 17/17 Q1011
Conditions at: ENCN (KRISTIANSAND/KJE, NO) observed 0020 UTC 27 July 2021
Temperature: 17.0°C (63°F)
Dewpoint: 17.0°C (63°F) [RH = 100%]
Pressure (altimeter): 29.85 inches Hg (1011.0 mb)
Winds: from the NE (50 degrees) at 3 MPH (3 knots; 1.5 m/s)
Visibility: 5 miles ( 8 km)
Ceiling: at least 12,000 feet AGL
Clouds: few clouds at 900 feet AGL
Weather: no significant weather observed at this time

Forecast for: AMD
Text: TAF AMD ENCN 261629Z 2616/2620 08008KT 9999 FEW035TCU SCT080
Forecast period: 1600 to 2000 UTC 26 July 2021
Forecast type: FROM: standard forecast or significant change
Winds: from the E (80 degrees) at 9 MPH (8 knots; 4.1 m/s)
Visibility: 6 or more miles (10+ km)
Ceiling: at least 12,000 feet AGL
Clouds: few clouds at 3500 feet AGL
scattered clouds at 8000 feet AGL
Weather: no significant weather forecast for this period
Text: TEMPO 2616/2620 06015G25KT 4000 TSRA FEW008 SCT025CB BKN060
Forecast period: 1600 to 2000 UTC 26 July 2021
Forecast type: TEMPORARY: The following changes expected for less than half the time period
Winds: from the ENE (60 degrees) at 17 MPH (15 knots; 7.7 m/s)
gusting to 29 MPH (25 knots; 12.9 m/s)
Visibility: 2.49 miles (4.01 km)
Ceiling: 6000 feet AGL
Clouds: few clouds at 800 feet AGL
scattered clouds at 2500 feet AGL
broken clouds at 6000 feet AGL
Weather: TSRA  (rain associated with thunderstorm(s))